createdAt,value
2017-08-29T00:01:07.220Z,15.29
2017-08-29T00:02:17.498Z,15.35
2017-08-29T00:03:27.126Z,15.33
2017-08-29T00:04:37.395Z,15.43
2017-08-29T00:05:47.666Z,15.43
2017-08-29T00:06:57.943Z,15.41
2017-08-29T00:08:08.221Z,15.32
2017-08-29T00:09:18.171Z,15.32
2017-08-29T00:10:28.120Z,15.45
2017-08-29T00:11:38.386Z,15.41
2017-08-29T00:12:48.335Z,15.44
2017-08-29T00:13:58.286Z,15.36
2017-08-29T00:15:08.556Z,15.41
2017-08-29T00:16:18.216Z,15.45
2017-08-29T00:17:28.491Z,15.44
2017-08-29T00:18:38.761Z,15.36
2017-08-29T00:19:48.734Z,15.33
2017-08-29T00:20:58.687Z,15.35
2017-08-29T00:22:08.956Z,15.32
2017-08-29T00:23:18.904Z,15.27
2017-08-29T00:24:28.854Z,15.35
2017-08-29T00:25:39.122Z,15.41
2017-08-29T00:26:49.396Z,15.36
2017-08-29T00:27:59.671Z,15.32
2017-08-29T00:29:09.939Z,15.32
2017-08-29T00:30:19.888Z,15.43
2017-08-29T00:31:30.166Z,15.33
2017-08-29T00:32:40.436Z,15.37
2017-08-29T00:33:50.707Z,15.29
2017-08-29T00:35:00.978Z,15.27
2017-08-29T00:36:10.611Z,15.35
2017-08-29T00:37:20.883Z,15.27
2017-08-29T00:38:30.832Z,15.33
2017-08-29T00:39:41.108Z,15.3
2017-08-29T00:40:51.384Z,15.36
2017-08-29T00:42:01.661Z,15.3
2017-08-29T00:43:11.931Z,15.29
2017-08-29T00:44:22.266Z,15.3
2017-08-29T00:45:31.573Z,15.35
2017-08-29T00:46:41.844Z,15.32
2017-08-29T00:47:52.113Z,15.29
2017-08-29T00:49:02.062Z,15.29
2017-08-29T00:50:12.010Z,15.29
2017-08-29T00:51:22.281Z,15.25
2017-08-29T00:52:31.909Z,15.17
2017-08-29T00:53:42.181Z,15.19
2017-08-29T00:54:52.452Z,15.17
2017-08-29T00:56:02.410Z,15.22
2017-08-29T00:57:12.369Z,15.26
2017-08-29T00:58:22.646Z,15.12
2017-08-29T00:59:32.597Z,15.26
2017-08-29T01:00:42.227Z,15.23
2017-08-29T01:01:52.508Z,15.18
2017-08-29T01:03:02.784Z,15.17
2017-08-29T01:04:13.055Z,15.14
2017-08-29T01:05:23.325Z,15.23
2017-08-29T01:06:33.603Z,15.17
2017-08-29T01:07:43.544Z,15.19
2017-08-29T01:08:53.813Z,15.22
2017-08-29T01:10:05.440Z,15.19
2017-08-29T01:11:15.714Z,15.25
2017-08-29T01:12:25.989Z,15.18
2017-08-29T01:13:36.262Z,15.19
2017-08-29T01:14:46.542Z,15.22
2017-08-29T01:15:56.811Z,15.25
2017-08-29T01:17:07.081Z,15.26
2017-08-29T01:18:17.354Z,15.25
2017-08-29T01:19:27.632Z,15.11
2017-08-29T01:20:37.267Z,15.14
2017-08-29T01:21:47.552Z,15.14
2017-08-29T01:22:57.821Z,15.15
2017-08-29T01:24:07.773Z,15.19
2017-08-29T01:25:18.053Z,15.04
2017-08-29T01:26:28.325Z,15.17
2017-08-29T01:27:38.597Z,15.11
2017-08-29T01:28:48.878Z,15.14
2017-08-29T01:29:59.145Z,15.15
2017-08-29T01:31:09.419Z,15.18
2017-08-29T01:32:19.690Z,15.15
2017-08-29T01:33:29.961Z,15.1
2017-08-29T01:34:40.231Z,15.04
2017-08-29T01:35:50.180Z,15.08
2017-08-29T01:37:00.136Z,15.15
2017-08-29T01:38:09.440Z,15.17
2017-08-29T01:39:19.715Z,15.15
2017-08-29T01:40:29.665Z,15.19
2017-08-29T01:41:39.935Z,15.29
2017-08-29T01:42:50.207Z,15.32
2017-08-29T01:44:00.480Z,15.41
2017-08-29T01:45:10.117Z,15.39
2017-08-29T01:46:20.387Z,15.47
2017-08-29T01:47:30.661Z,15.51
2017-08-29T01:48:40.932Z,15.47
2017-08-29T01:49:51.201Z,15.47
2017-08-29T01:51:01.477Z,15.51
2017-08-29T01:52:11.426Z,15.57
2017-08-29T01:53:21.739Z,15.45
2017-08-29T01:54:32.012Z,15.6
2017-08-29T01:55:42.282Z,15.6
2017-08-29T01:56:52.751Z,15.65
2017-08-29T01:58:02.711Z,15.63
2017-08-29T01:59:12.351Z,15.63
2017-08-29T02:00:22.621Z,15.66
2017-08-29T02:01:32.893Z,15.63
2017-08-29T02:02:43.163Z,15.69
2017-08-29T02:03:53.431Z,15.7
2017-08-29T02:05:03.706Z,15.6
2017-08-29T02:06:13.333Z,15.63
2017-08-29T02:07:23.602Z,15.69
2017-08-29T02:08:33.547Z,15.63
2017-08-29T02:09:43.498Z,15.63
2017-08-29T02:10:53.129Z,15.66
2017-08-29T02:12:02.432Z,15.66
2017-08-29T02:13:12.380Z,15.62
2017-08-29T02:14:22.654Z,15.7
2017-08-29T02:15:32.922Z,15.63
2017-08-29T02:16:43.193Z,15.59
2017-08-29T02:17:53.460Z,15.62
2017-08-29T02:19:03.416Z,15.57
2017-08-29T02:20:13.053Z,15.67
2017-08-29T02:21:23.322Z,15.7
2017-08-29T02:22:33.591Z,15.83
2017-08-29T02:23:43.869Z,15.73
2017-08-29T02:24:54.140Z,15.81
2017-08-29T02:26:04.092Z,15.7
2017-08-29T02:27:14.359Z,15.73
2017-08-29T02:28:24.306Z,15.76
2017-08-29T02:29:34.625Z,15.81
2017-08-29T02:30:44.249Z,15.75
2017-08-29T02:31:54.564Z,15.78
2017-08-29T02:33:04.835Z,15.81
2017-08-29T02:34:15.108Z,15.75
2017-08-29T02:35:24.743Z,15.78
2017-08-29T02:36:34.703Z,15.87
2017-08-29T02:37:44.974Z,15.81
2017-08-29T02:38:55.244Z,15.83
2017-08-29T02:40:04.876Z,15.76
2017-08-29T02:41:14.833Z,15.84
2017-08-29T02:42:24.463Z,15.87
2017-08-29T02:43:34.732Z,15.81
2017-08-29T02:44:45.011Z,15.83
2017-08-29T02:45:55.280Z,15.84
2017-08-29T02:47:05.553Z,15.84
2017-08-29T02:48:15.823Z,15.91
2017-08-29T02:49:26.107Z,15.88
2017-08-29T02:50:36.381Z,15.83
2017-08-29T02:51:46.654Z,16.03
2017-08-29T02:52:56.603Z,15.96
2017-08-29T02:54:06.884Z,15.91
2017-08-29T02:55:16.841Z,15.88
2017-08-29T02:56:27.110Z,16
2017-08-29T02:57:37.380Z,15.92
2017-08-29T02:58:47.329Z,16
2017-08-29T02:59:57.603Z,15.91
2017-08-29T03:01:07.561Z,16
2017-08-29T03:02:17.830Z,16
2017-08-29T03:03:28.104Z,15.94
2017-08-29T03:04:38.372Z,16.1
2017-08-29T03:05:48.646Z,16.05
2017-08-29T03:06:58.916Z,16.1
2017-08-29T03:08:09.183Z,16.03
2017-08-29T03:09:19.140Z,16.13
2017-08-29T03:10:29.086Z,16.16
2017-08-29T03:11:39.361Z,16.1
2017-08-29T03:12:49.630Z,16.16
2017-08-29T03:13:59.902Z,16.08
2017-08-29T03:15:10.169Z,16.08
2017-08-29T03:16:20.442Z,16.09
2017-08-29T03:17:30.712Z,16.1
2017-08-29T03:18:41.000Z,16.1
2017-08-29T03:19:50.944Z,16.05
2017-08-29T03:21:01.214Z,16.05
2017-08-29T03:22:11.167Z,16.1
2017-08-29T03:23:21.434Z,16.1
2017-08-29T03:24:31.702Z,16.1
2017-08-29T03:25:41.997Z,16.13
2017-08-29T03:26:52.270Z,16
2017-08-29T03:28:02.542Z,16.1
2017-08-29T03:29:12.169Z,16.1
2017-08-29T03:30:22.122Z,16.03
2017-08-29T03:31:32.076Z,16.09
2017-08-29T03:32:42.345Z,16.1
2017-08-29T03:33:52.618Z,16.08
2017-08-29T03:35:02.887Z,16.21
2017-08-29T03:36:13.190Z,16.08
2017-08-29T03:37:23.464Z,16.08
2017-08-29T03:38:33.737Z,16.09
2017-08-29T03:39:44.006Z,16.09
2017-08-29T03:40:54.275Z,16.13
2017-08-29T03:42:04.221Z,16.1
2017-08-29T03:43:13.850Z,16.06
2017-08-29T03:44:24.125Z,16.02
2017-08-29T03:45:34.072Z,16.05
2017-08-29T03:46:44.017Z,16.02
2017-08-29T03:47:54.288Z,16.13
2017-08-29T03:49:04.242Z,16.05
2017-08-29T03:50:13.227Z,16
2017-08-29T03:51:22.853Z,16.03
2017-08-29T03:52:33.127Z,15.98
2017-08-29T03:53:43.396Z,15.87
2017-08-29T03:54:53.665Z,15.96
2017-08-29T03:56:03.933Z,15.83
2017-08-29T03:57:13.584Z,15.81
2017-08-29T03:58:23.859Z,15.8
2017-08-29T03:59:33.813Z,15.72
2017-08-29T04:00:44.085Z,15.72
2017-08-29T04:01:54.376Z,15.63
2017-08-29T04:03:04.644Z,15.72
2017-08-29T04:04:14.924Z,15.6
2017-08-29T04:05:25.197Z,15.59
2017-08-29T04:06:35.467Z,15.52
2017-08-29T04:07:45.742Z,15.51
2017-08-29T04:08:56.012Z,15.47
2017-08-29T04:10:06.283Z,15.43
2017-08-29T04:11:16.237Z,15.44
2017-08-29T04:12:26.185Z,15.47
2017-08-29T04:13:35.812Z,15.47
2017-08-29T04:14:46.087Z,15.48
2017-08-29T04:15:56.377Z,15.47
2017-08-29T04:17:06.800Z,15.47
2017-08-29T04:18:16.747Z,15.48
2017-08-29T04:19:27.055Z,15.5
2017-08-29T04:20:37.328Z,15.45
2017-08-29T04:21:47.605Z,15.5
2017-08-29T04:22:57.871Z,15.5
2017-08-29T04:24:08.140Z,15.51
2017-08-29T04:25:18.088Z,15.52
2017-08-29T04:26:28.362Z,15.5
2017-08-29T04:27:38.630Z,15.51
2017-08-29T04:28:48.898Z,15.48
2017-08-29T04:29:59.167Z,15.59
2017-08-29T04:31:09.443Z,15.54
2017-08-29T04:32:19.089Z,15.51
2017-08-29T04:33:29.365Z,15.54
2017-08-29T04:34:39.634Z,15.65
2017-08-29T04:35:49.909Z,15.66
2017-08-29T04:36:59.857Z,15.72
2017-08-29T07:23:37.683Z,17.57
2017-08-29T07:24:47.950Z,17.54
2017-08-29T07:25:58.222Z,17.66
2017-08-29T07:27:08.501Z,17.66
2017-08-29T07:28:18.129Z,17.75
2017-08-29T07:29:28.077Z,17.65
2017-08-29T07:30:38.349Z,17.65
2017-08-29T07:31:48.618Z,17.75
2017-08-29T07:32:58.604Z,17.72
2017-08-29T07:34:08.884Z,17.71
2017-08-29T07:35:18.835Z,17.68
2017-08-29T07:36:29.107Z,17.65
2017-08-29T07:37:39.377Z,17.68
2017-08-29T07:38:49.328Z,17.72
2017-08-29T07:39:59.606Z,17.65
2017-08-29T07:41:09.586Z,17.72
2017-08-29T07:42:19.877Z,17.75
2017-08-29T07:43:30.153Z,17.79
2017-08-29T07:44:40.426Z,17.8
2017-08-29T07:45:50.697Z,17.78
2017-08-29T07:47:00.645Z,17.82
2017-08-29T07:48:10.926Z,17.78
2017-08-29T07:49:20.876Z,17.76
2017-08-29T07:50:30.826Z,17.82
2017-08-29T07:51:40.460Z,17.78
2017-08-29T07:52:50.733Z,17.8
2017-08-29T07:54:00.682Z,17.79
2017-08-29T07:55:10.630Z,17.71
2017-08-29T07:56:20.590Z,17.69
2017-08-29T07:57:30.876Z,17.63
2017-08-29T07:58:41.146Z,17.73
2017-08-29T07:59:51.417Z,17.71
2017-08-29T08:01:01.688Z,17.57
2017-08-29T08:02:11.997Z,17.68
2017-08-29T08:03:21.950Z,17.53
2017-08-29T08:04:32.227Z,17.46
2017-08-29T08:05:42.496Z,17.41
2017-08-29T08:06:52.449Z,17.46
2017-08-29T08:08:02.722Z,17.34
2017-08-29T08:09:12.992Z,17.32
2017-08-29T08:10:23.268Z,17.28
2017-08-29T08:11:33.547Z,17.28
2017-08-29T08:12:43.500Z,17.27
2017-08-29T08:13:53.450Z,17.19
2017-08-29T08:15:03.084Z,17.34
2017-08-29T08:16:13.353Z,17.3
2017-08-29T08:17:23.329Z,17.24
2017-08-29T08:18:33.603Z,17.28
2017-08-29T08:19:43.876Z,17.27
2017-08-29T08:20:54.150Z,17.28
2017-08-29T08:22:04.419Z,17.2
2017-08-29T08:23:14.696Z,17.22
2017-08-29T08:24:24.339Z,17.32
2017-08-29T08:25:34.288Z,17.31
2017-08-29T08:26:44.568Z,17.32
2017-08-29T08:27:54.519Z,17.28
2017-08-29T08:29:04.796Z,17.31
2017-08-29T08:30:15.064Z,17.32
2017-08-29T08:31:25.337Z,17.31
2017-08-29T08:32:35.607Z,17.27
2017-08-29T08:33:45.876Z,17.32
2017-08-29T08:34:56.150Z,17.38
2017-08-29T08:36:06.109Z,17.38
2017-08-29T08:37:16.057Z,17.41
2017-08-29T08:38:26.329Z,17.38
2017-08-29T08:39:36.607Z,17.39
2017-08-29T08:40:46.879Z,17.41
2017-08-29T08:41:57.151Z,17.44
2017-08-29T08:43:07.427Z,17.44
2017-08-29T08:44:17.709Z,17.41
2017-08-29T08:45:27.984Z,17.44
2017-08-29T08:46:38.255Z,17.47
2017-08-29T08:47:48.531Z,17.42
2017-08-29T08:48:58.808Z,17.5
2017-08-29T08:50:09.334Z,17.47
2017-08-29T08:51:19.609Z,17.44
2017-08-29T08:52:29.886Z,17.42
2017-08-29T08:53:39.842Z,17.46
2017-08-29T08:54:50.111Z,17.44
2017-08-29T08:56:00.060Z,17.52
2017-08-29T08:57:10.011Z,17.5
2017-08-29T08:58:20.284Z,17.47
2017-08-29T08:59:30.558Z,17.49
2017-08-29T09:00:40.187Z,17.44
2017-08-29T09:01:49.817Z,17.52
2017-08-29T09:03:00.094Z,17.42
2017-08-29T09:04:10.372Z,17.46
2017-08-29T09:05:20.646Z,17.49
2017-08-29T09:06:30.927Z,17.49
2017-08-29T09:07:41.199Z,17.5
2017-08-29T09:08:51.146Z,17.53
2017-08-29T09:10:01.453Z,17.5
2017-08-29T09:11:11.729Z,17.52
2017-08-29T09:12:22.002Z,17.57
2017-08-29T09:13:32.274Z,17.69
2017-08-29T09:14:42.224Z,17.71
2017-08-29T09:15:52.174Z,17.68
2017-08-29T09:17:02.451Z,17.79
2017-08-29T09:18:12.763Z,17.75
2017-08-29T09:19:23.041Z,17.72
2017-08-29T09:20:33.310Z,17.86
2017-08-29T09:21:43.259Z,17.86
2017-08-29T09:22:53.235Z,17.93
2017-08-29T09:24:03.507Z,17.9
2017-08-29T09:25:13.791Z,17.8
2017-08-29T09:26:24.068Z,17.86
2017-08-29T09:27:33.700Z,17.86
2017-08-29T09:28:43.650Z,17.93
2017-08-29T09:29:53.924Z,17.87
2017-08-29T09:31:03.559Z,17.87
2017-08-29T09:32:13.831Z,17.87
2017-08-29T09:33:23.792Z,17.97
2017-08-29T09:34:34.070Z,17.8
2017-08-29T09:35:44.019Z,17.84
2017-08-29T09:36:53.970Z,17.87
2017-08-29T09:38:04.243Z,17.71
2017-08-29T09:39:14.517Z,17.79
2017-08-29T09:40:24.468Z,17.76
2017-08-29T09:41:34.423Z,17.79
2017-08-29T09:42:44.372Z,17.9
2017-08-29T09:43:54.647Z,17.84
2017-08-29T09:45:04.923Z,17.79
2017-08-29T09:46:14.875Z,17.82
2017-08-29T09:47:24.831Z,17.79
2017-08-29T09:48:35.104Z,17.88
2017-08-29T09:49:45.057Z,17.82
2017-08-29T09:50:55.326Z,17.78
2017-08-29T09:52:05.600Z,17.84
2017-08-29T09:53:15.229Z,17.86
2017-08-29T09:54:25.504Z,17.79
2017-08-29T09:55:35.776Z,17.76
2017-08-29T09:56:45.730Z,17.82
2017-08-29T09:57:55.684Z,17.79
2017-08-29T09:59:05.968Z,17.84
2017-08-29T10:00:15.931Z,17.9
2017-08-29T10:01:26.214Z,17.88
2017-08-29T10:02:36.486Z,17.88
2017-08-29T10:03:46.757Z,17.98
2017-08-29T10:04:56.708Z,18
2017-08-29T10:06:06.981Z,18.08
2017-08-29T10:07:17.251Z,18.21
2017-08-29T10:08:27.522Z,18.24
2017-08-29T10:09:37.797Z,18.28
2017-08-29T10:10:47.751Z,18.41
2017-08-29T10:11:58.023Z,18.45
2017-08-29T10:13:08.299Z,18.49
2017-08-29T10:14:18.571Z,18.58
2017-08-29T10:15:28.523Z,18.7
2017-08-29T10:16:38.794Z,18.76
2017-08-29T10:17:49.066Z,18.7
2017-08-29T10:18:59.022Z,18.67
2017-08-29T10:20:09.300Z,18.58
2017-08-29T10:21:19.571Z,18.58
2017-08-29T10:22:29.847Z,18.55
2017-08-29T10:23:40.124Z,18.45
2017-08-29T10:24:50.085Z,18.41
2017-08-29T10:26:00.033Z,18.51
2017-08-29T10:27:10.319Z,18.49
2017-08-29T10:28:20.593Z,18.48
2017-08-29T10:29:30.545Z,18.41
2017-08-29T10:30:40.820Z,18.52
2017-08-29T10:31:51.091Z,18.52
2017-08-29T10:33:01.362Z,18.37
2017-08-29T10:34:11.675Z,18.33
2017-08-29T10:35:21.632Z,18.31
2017-08-29T10:36:31.583Z,18.18
2017-08-29T10:37:41.861Z,18.19
2017-08-29T10:38:52.132Z,18.18
2017-08-29T10:40:02.406Z,18.27
2017-08-29T10:41:12.358Z,18.18
2017-08-29T10:42:22.631Z,18.16
2017-08-29T10:43:32.905Z,18.23
2017-08-29T10:44:43.183Z,18.33
2017-08-29T10:45:53.457Z,18.39
2017-08-29T10:47:03.086Z,18.33
2017-08-29T10:48:13.358Z,18.51
2017-08-29T10:49:23.314Z,18.46
2017-08-29T10:50:33.591Z,18.48
2017-08-29T10:51:43.862Z,18.55
2017-08-29T10:52:53.813Z,18.6
2017-08-29T10:54:04.086Z,18.68
2017-08-29T10:55:13.716Z,18.78
2017-08-29T10:56:23.988Z,19.04
2017-08-29T10:57:34.261Z,19.04
2017-08-29T10:58:44.535Z,19.09
2017-08-29T10:59:54.816Z,19.26
2017-08-29T11:01:04.768Z,19.47
2017-08-29T11:02:14.722Z,19.59
2017-08-29T11:03:24.996Z,19.78
2017-08-29T11:04:34.953Z,19.78
2017-08-29T11:05:44.910Z,19.9
2017-08-29T11:06:54.872Z,19.9
2017-08-29T11:08:04.824Z,19.92
2017-08-29T11:09:15.103Z,20
2017-08-29T11:10:25.389Z,20.02
2017-08-29T11:11:35.339Z,20.04
2017-08-29T11:12:45.319Z,19.94
2017-08-29T11:13:55.593Z,19.99
2017-08-29T11:15:05.867Z,19.94
2017-08-29T11:16:16.142Z,20.02
2017-08-29T11:17:26.094Z,20.14
2017-08-29T11:18:36.049Z,20.24
2017-08-29T11:19:46.318Z,20.44
2017-08-29T11:20:56.269Z,20.4
2017-08-29T11:22:06.550Z,20.42
2017-08-29T11:23:16.502Z,20.36
2017-08-29T11:24:26.781Z,20.37
2017-08-29T11:25:37.058Z,20.33
2017-08-29T11:26:47.330Z,20.36
2017-08-29T11:27:57.284Z,20.39
2017-08-29T11:29:07.568Z,20.39
2017-08-29T11:30:17.843Z,20.59
2017-08-29T11:31:28.116Z,20.6
2017-08-29T11:32:38.074Z,20.68
2017-08-29T11:33:48.348Z,20.78
2017-08-29T11:34:58.616Z,20.75
2017-08-29T11:36:08.900Z,20.8
2017-08-29T11:37:18.218Z,20.82
2017-08-29T11:38:28.510Z,20.64
2017-08-29T11:39:38.462Z,20.64
2017-08-29T11:40:48.427Z,20.6
2017-08-29T11:41:58.701Z,20.59
2017-08-29T11:43:08.976Z,20.49
2017-08-29T11:44:18.929Z,20.49
2017-08-29T11:45:29.203Z,20.46
2017-08-29T11:46:39.172Z,20.52
2017-08-29T11:47:49.446Z,20.52
2017-08-29T11:48:59.399Z,20.5
2017-08-29T11:50:09.675Z,20.37
2017-08-29T11:51:19.307Z,20.27
2017-08-29T11:52:29.264Z,20.39
2017-08-29T11:53:39.213Z,20.26
2017-08-29T11:54:49.490Z,20.24
2017-08-29T11:55:59.819Z,20.19
2017-08-29T11:57:09.783Z,20.24
2017-08-29T11:58:20.058Z,20.24
2017-08-29T11:59:30.012Z,20.1
2017-08-29T12:00:39.975Z,20.12
2017-08-29T12:01:50.250Z,20.14
2017-08-29T12:03:00.557Z,19.97
2017-08-29T12:04:10.859Z,19.99
2017-08-29T12:05:21.147Z,19.93
2017-08-29T12:06:31.422Z,19.77
2017-08-29T12:07:41.374Z,19.78
2017-08-29T12:08:51.646Z,19.85
2017-08-29T12:10:01.927Z,19.9
2017-08-29T12:11:12.206Z,19.82
2017-08-29T12:12:22.481Z,19.67
2017-08-29T12:13:32.431Z,19.6
2017-08-29T12:14:42.387Z,19.62
2017-08-29T12:15:52.341Z,19.63
2017-08-29T12:17:02.615Z,19.59
2017-08-29T12:18:12.893Z,19.49
2017-08-29T12:19:23.168Z,19.45
2017-08-29T12:20:33.449Z,19.47
2017-08-29T12:21:43.722Z,19.47
2017-08-29T12:22:53.996Z,19.26
2017-08-29T12:24:04.266Z,19.32
2017-08-29T12:25:14.245Z,19.23
2017-08-29T12:26:24.520Z,19.26
2017-08-29T12:27:34.483Z,19.29
2017-08-29T12:28:44.754Z,19.12
2017-08-29T12:29:55.031Z,19.11
2017-08-29T12:31:05.347Z,19.19
2017-08-29T12:32:15.909Z,19.12
2017-08-29T12:33:25.862Z,19.07
2017-08-29T12:34:36.145Z,18.98
2017-08-29T12:35:46.137Z,19.05
2017-08-29T12:36:55.769Z,19.04
2017-08-29T12:38:06.079Z,19.08
2017-08-29T12:39:15.710Z,19.04
2017-08-29T12:40:25.980Z,19.04
2017-08-29T12:41:36.254Z,19.08
2017-08-29T12:42:45.892Z,19
2017-08-29T12:43:55.845Z,19.05
2017-08-29T12:45:06.118Z,18.96
2017-08-29T12:46:16.070Z,19.05
2017-08-29T12:47:26.027Z,19.04
2017-08-29T12:48:36.303Z,19.04
2017-08-29T12:49:46.256Z,19.04
2017-08-29T12:50:56.537Z,19.04
2017-08-29T12:52:06.491Z,18.97
2017-08-29T12:53:16.766Z,19
2017-08-29T12:54:26.394Z,18.86
2017-08-29T12:55:36.668Z,18.88
2017-08-29T12:56:46.939Z,18.73
2017-08-29T12:57:57.218Z,18.68
2017-08-29T12:59:07.492Z,18.6
2017-08-29T13:00:17.466Z,18.64
2017-08-29T13:01:27.417Z,18.48
2017-08-29T13:02:37.692Z,18.34
2017-08-29T13:03:47.322Z,18.31
2017-08-29T13:04:57.272Z,18.13
2017-08-29T13:06:07.545Z,18.03
2017-08-29T13:07:17.829Z,18.05
2017-08-29T13:08:28.107Z,17.79
2017-08-29T13:09:38.067Z,17.76
2017-08-29T13:10:48.367Z,17.69
2017-08-29T13:11:58.647Z,17.69
2017-08-29T13:13:08.926Z,17.63
2017-08-29T13:14:18.877Z,17.54
2017-08-29T13:15:28.830Z,17.59
2017-08-29T13:16:39.104Z,17.41
2017-08-29T13:17:49.055Z,17.41
2017-08-29T13:18:59.351Z,17.39
2017-08-29T13:20:09.626Z,17.31
2017-08-29T13:21:19.577Z,17.31
2017-08-29T13:22:29.848Z,17.34
2017-08-29T13:23:39.802Z,17.37
2017-08-29T13:24:50.075Z,17.37
2017-08-29T13:26:00.351Z,17.44
2017-08-29T13:27:10.631Z,17.39
2017-08-29T13:28:20.260Z,17.5
2017-08-29T13:29:30.531Z,17.5
2017-08-29T13:30:40.807Z,17.53
2017-08-29T13:31:51.097Z,17.6
2017-08-29T13:33:01.057Z,17.73
2017-08-29T13:34:10.688Z,17.71
2017-08-29T13:35:20.959Z,17.59
2017-08-29T13:36:30.588Z,17.5
2017-08-29T13:37:40.539Z,17.38
2017-08-29T13:38:50.810Z,17.19
2017-08-29T13:40:01.084Z,17.24
2017-08-29T13:41:10.390Z,17.28
2017-08-29T13:42:20.666Z,17.19
2017-08-29T13:43:30.616Z,17.22
2017-08-29T13:44:40.567Z,17.27
2017-08-29T13:45:50.518Z,17.27
2017-08-29T13:47:00.789Z,17.27
2017-08-29T13:48:10.740Z,17.39
2017-08-29T13:49:21.051Z,17.32
2017-08-29T13:50:31.321Z,17.41
2017-08-29T13:51:41.597Z,17.42
2017-08-29T13:52:51.571Z,17.37
2017-08-29T13:54:01.843Z,17.37
2017-08-29T13:55:12.115Z,17.37
2017-08-29T13:56:21.745Z,17.34
2017-08-29T13:57:31.699Z,17.34
2017-08-29T13:58:41.983Z,17.3
2017-08-29T13:59:51.934Z,17.27
2017-08-29T14:01:02.207Z,17.38
2017-08-29T14:02:12.162Z,17.22
2017-08-29T14:03:22.436Z,17.32
2017-08-29T14:04:32.388Z,17.22
2017-08-29T14:05:42.336Z,17.16
2017-08-29T14:06:52.288Z,17.16
2017-08-29T14:08:02.237Z,17.14
2017-08-29T14:09:12.516Z,17.07
2017-08-29T14:10:22.465Z,17.16
2017-08-29T14:11:32.416Z,17.1
2017-08-29T14:12:42.365Z,17.22
2017-08-29T14:13:52.316Z,17.19
2017-08-29T14:15:01.943Z,17.1
2017-08-29T14:16:11.899Z,17.09
2017-08-29T14:17:21.852Z,17.07
2017-08-29T14:18:32.128Z,17.14
2017-08-29T14:19:41.757Z,17.27
2017-08-29T14:20:52.028Z,17.23
2017-08-29T14:22:02.305Z,17.31
2017-08-29T14:23:12.256Z,17.38
2017-08-29T14:24:22.529Z,17.37
2017-08-29T14:25:32.803Z,17.39
2017-08-29T14:26:43.077Z,17.5
2017-08-29T14:27:53.359Z,17.59
2017-08-29T14:29:03.630Z,17.6
2017-08-29T14:30:13.907Z,17.63
2017-08-29T14:31:24.181Z,17.63
2017-08-29T14:32:34.462Z,17.52
2017-08-29T14:33:44.413Z,17.54
2017-08-29T14:34:54.682Z,17.68
2017-08-29T14:36:04.962Z,17.57
2017-08-29T14:37:15.246Z,17.63
2017-08-29T14:38:25.519Z,17.5
2017-08-29T14:39:35.147Z,17.42
2017-08-29T14:40:45.418Z,17.41
2017-08-29T14:41:55.690Z,17.34
2017-08-29T14:43:05.961Z,17.23
2017-08-29T14:44:15.593Z,17.28
2017-08-29T14:45:25.865Z,17.28
2017-08-29T14:46:36.132Z,17.16
2017-08-29T14:47:46.095Z,17.2
2017-08-29T14:48:56.370Z,17.2
2017-08-29T14:50:06.322Z,17.22
2017-08-29T14:51:16.598Z,17.22
2017-08-29T14:52:26.546Z,17.14
2017-08-29T14:53:36.825Z,17.16
2017-08-29T14:54:47.121Z,17.09
2017-08-29T14:55:57.394Z,17.12
2017-08-29T14:57:07.346Z,17.14
2017-08-29T14:58:17.625Z,17.04
2017-08-29T14:59:27.903Z,17.02
2017-08-29T15:00:37.859Z,17.04
2017-08-29T15:01:47.809Z,17.01
2017-08-29T15:02:57.764Z,16.98
2017-08-29T15:04:08.041Z,16.98
2017-08-29T15:05:17.991Z,17.02
2017-08-29T15:06:28.263Z,16.95
2017-08-29T15:07:38.226Z,16.94
2017-08-29T15:08:48.496Z,16.95
2017-08-29T15:09:58.772Z,16.94
2017-08-29T15:11:09.050Z,16.91
2017-08-29T15:12:19.318Z,16.91
2017-08-29T15:13:29.588Z,16.95
2017-08-29T15:14:39.537Z,16.91
2017-08-29T15:15:49.806Z,16.97
2017-08-29T15:17:00.101Z,16.99
2017-08-29T15:18:10.386Z,16.92
2017-08-29T15:19:20.652Z,16.92
2017-08-29T15:20:30.932Z,16.92
2017-08-29T15:21:41.208Z,16.86
2017-08-29T15:22:51.482Z,16.89
2017-08-29T15:24:01.107Z,16.87
2017-08-29T15:25:10.737Z,16.84
2017-08-29T15:26:21.009Z,16.99
2017-08-29T15:27:30.963Z,16.92
2017-08-29T15:28:40.916Z,16.95
2017-08-29T15:29:51.190Z,17.04
2017-08-29T15:31:01.142Z,16.92
2017-08-29T15:32:11.419Z,16.97
2017-08-29T15:33:23.472Z,16.99
2017-08-29T15:34:33.745Z,16.97
2017-08-29T15:35:43.700Z,17.05
2017-08-29T15:36:53.647Z,17.04
2017-08-29T15:38:03.918Z,16.98
2017-08-29T15:39:14.191Z,17.05
2017-08-29T15:40:24.473Z,16.99
2017-08-29T15:41:34.744Z,17.01
2017-08-29T15:42:44.693Z,16.98
2017-08-29T15:43:54.972Z,17.02
2017-08-29T15:45:04.600Z,16.91
2017-08-29T15:46:14.567Z,16.89
2017-08-29T15:47:24.516Z,16.97
2017-08-29T15:48:34.469Z,16.94
2017-08-29T15:49:44.743Z,16.87
2017-08-29T15:50:55.025Z,16.84
2017-08-29T15:52:05.296Z,16.87
2017-08-29T15:53:14.925Z,16.82
2017-08-29T15:54:24.883Z,16.84
2017-08-29T15:55:34.830Z,16.8
2017-08-29T15:56:44.457Z,16.83
2017-08-29T15:57:54.730Z,16.8
2017-08-29T15:59:04.676Z,16.83
2017-08-29T16:00:14.626Z,16.76
2017-08-29T16:01:24.897Z,16.76
2017-08-29T16:02:35.166Z,16.69
2017-08-29T16:03:45.115Z,16.66
2017-08-29T16:04:55.390Z,16.76
2017-08-29T16:06:05.673Z,16.72
2017-08-29T16:07:15.623Z,16.72
2017-08-29T16:08:25.570Z,16.65
2017-08-29T16:09:35.525Z,16.57
2017-08-29T16:10:45.796Z,16.57
2017-08-29T16:11:56.066Z,16.57
2017-08-29T16:13:06.017Z,16.65
2017-08-29T16:14:15.970Z,16.68
2017-08-29T16:15:26.242Z,16.58
2017-08-29T16:16:36.513Z,16.68
2017-08-29T16:17:46.466Z,16.64
2017-08-29T16:18:56.735Z,16.65
2017-08-29T16:20:07.012Z,16.49
2017-08-29T16:21:16.962Z,16.5
2017-08-29T16:22:27.233Z,16.54
2017-08-29T16:23:37.505Z,16.55
2017-08-29T16:24:47.133Z,16.59
2017-08-29T16:25:57.082Z,16.64
2017-08-29T16:27:07.029Z,16.61
2017-08-29T16:28:17.318Z,16.51
2017-08-29T16:29:27.617Z,16.5
2017-08-29T16:30:37.940Z,16.5
2017-08-29T16:31:47.891Z,16.59
2017-08-29T16:32:57.843Z,16.57
2017-08-29T16:34:07.478Z,16.49
2017-08-29T16:35:17.750Z,16.51
2017-08-29T16:36:27.699Z,16.54
2017-08-29T16:37:39.977Z,16.54
2017-08-29T16:38:50.259Z,16.54
2017-08-29T16:40:00.533Z,16.54
2017-08-29T16:41:10.481Z,16.49
2017-08-29T16:42:20.436Z,16.57
2017-08-29T16:43:30.706Z,16.55
2017-08-29T16:44:40.014Z,16.51
2017-08-29T16:45:49.980Z,16.51
2017-08-29T16:46:59.929Z,16.51
2017-08-29T16:48:10.204Z,16.62
2017-08-29T16:49:20.153Z,16.55
2017-08-29T16:50:30.100Z,16.62
2017-08-29T16:51:40.050Z,16.51
2017-08-29T16:52:50.321Z,16.58
2017-08-29T16:54:00.605Z,16.49
2017-08-29T16:55:10.234Z,16.49
2017-08-29T16:56:20.185Z,16.49
2017-08-29T16:57:30.134Z,16.54
2017-08-29T16:58:40.089Z,16.47
2017-08-29T16:59:50.063Z,16.4
2017-08-29T17:01:00.012Z,16.44
2017-08-29T17:02:09.962Z,16.47
2017-08-29T17:03:20.235Z,16.4
2017-08-29T17:04:30.185Z,16.39
2017-08-29T17:05:40.133Z,16.39
2017-08-29T17:06:50.407Z,16.37
2017-08-29T17:08:00.358Z,16.26
2017-08-29T17:09:10.311Z,16.37
2017-08-29T17:10:20.271Z,16.31
2017-08-29T17:11:30.556Z,16.41
2017-08-29T17:12:40.832Z,16.34
2017-08-29T17:13:50.138Z,16.41
2017-08-29T17:15:00.414Z,16.31
2017-08-29T17:16:10.688Z,16.34
2017-08-29T17:17:20.642Z,16.26
2017-08-29T17:18:30.913Z,16.25
2017-08-29T17:19:40.863Z,16.17
2017-08-29T17:20:50.815Z,16.22
2017-08-29T17:22:01.083Z,16.13
2017-08-29T17:23:11.035Z,16.12
2017-08-29T17:24:20.986Z,16.03
2017-08-29T17:25:31.261Z,16.06
2017-08-29T17:26:40.894Z,16.09
2017-08-29T17:27:50.845Z,16.03
2017-08-29T17:29:01.116Z,16.05
2017-08-29T17:30:11.066Z,16.08
2017-08-29T17:31:21.018Z,15.88
2017-08-29T17:32:30.971Z,15.88
2017-08-29T17:33:41.247Z,16
2017-08-29T17:34:50.878Z,15.88
2017-08-29T17:36:01.146Z,15.98
2017-08-29T17:37:11.099Z,15.98
2017-08-29T17:38:21.372Z,15.9
2017-08-29T17:39:31.642Z,15.92
2017-08-29T17:40:41.923Z,15.81
2017-08-29T17:41:51.877Z,15.83
2017-08-29T17:43:02.161Z,15.76
2017-08-29T17:44:12.430Z,15.83
2017-08-29T17:45:22.379Z,15.84
2017-08-29T17:46:32.356Z,15.75
2017-08-29T17:47:42.625Z,15.72
2017-08-29T17:48:52.902Z,15.78
2017-08-29T17:50:03.173Z,15.84
2017-08-29T17:51:12.799Z,15.84
2017-08-29T17:52:22.425Z,15.72
2017-08-29T17:53:32.705Z,15.76